^^
B2 Weather Station Historical Data
Daily Summary for June 2, 2019 Units:  English    Metric   Both
Daily Weekly Monthly Yearly Custom
  High: Low: Average:
Temperature: 73.3 °F 52.6 °F 62.2 °F
Dew Point: 59.4 °F 47.3 °F 52.2 °F
Humidity: 94% 46% 72%
Wind Speed: 17.3mph 0mph 5.6mph
Wind Gust: 11.1mph - -
Wind- - South
Pressure: 29.98 in 29.76 in -
Precipitation: 0 in    
Historical Graphs
 
 
Tabular Data for June 2, 2019
Time Temperature Dew Point Pressure Wind Wind Speed Wind Gust Humidity Rainfall Rate (Hourly) solar
00:04 60.4 °F 58.7 °F 29.76 in North 10.4 mph 8.5 mph 94% 0 in 0.00 W/m2
00:09 60.4 °F 58.7 °F 29.76 in North 10.4 mph 6.2 mph 94% 0 in 0.00 W/m2
00:14 60.4 °F 58.7 °F 29.76 in North 9.2 mph 5.1 mph 94% 0 in 0.00 W/m2
00:19 60.1 °F 58.4 °F 29.76 in NNE 10 mph 8.4 mph 94% 0 in 0.00 W/m2
00:24 59.8 °F 58.1 °F 29.77 in NNE 11.5 mph 7.2 mph 94% 0 in 0.00 W/m2
00:29 59.6 °F 57.9 °F 29.77 in NE 9.2 mph 8.3 mph 94% 0 in 0.00 W/m2
00:34 59 °F 57.3 °F 29.77 in North 9.2 mph 5.7 mph 94% 0 in 0.00 W/m2
00:39 58.2 °F 56.5 °F 29.78 in NNE 11 mph 7.6 mph 94% 0 in 0.00 W/m2
00:44 57.6 °F 55.9 °F 29.78 in NNE 9.2 mph 5.4 mph 94% 0 in 0.00 W/m2
00:49 57.3 °F 55.6 °F 29.78 in NE 8.1 mph 5.1 mph 94% 0 in 0.00 W/m2
00:54 57.1 °F 55.4 °F 29.78 in NNE 6.9 mph 3.6 mph 94% 0 in 0.00 W/m2
00:59 56.9 °F 55.2 °F 29.78 in NNE 8.1 mph 1.6 mph 94% 0 in 0.00 W/m2
01:04 56.8 °F 55.1 °F 29.77 in NNE 5.8 mph 3.2 mph 94% 0 in 0.00 W/m2
01:09 56.6 °F 54.9 °F 29.77 in NNE 4.6 mph 2.2 mph 94% 0 in 0.00 W/m2
01:14 56.4 °F 54.7 °F 29.77 in NE 8.1 mph 3.7 mph 94% 0 in 0.00 W/m2
01:19 56.2 °F 54.5 °F 29.77 in NNE 6.9 mph 3.6 mph 94% 0 in 0.00 W/m2
01:24 56.1 °F 54.4 °F 29.77 in NNE 6.9 mph 3.1 mph 94% 0 in 0.00 W/m2
01:29 56 °F 54.3 °F 29.78 in NNE 4.6 mph 3.7 mph 94% 0 in 0.00 W/m2
01:34 55.9 °F 54.2 °F 29.78 in North 5.8 mph 3.8 mph 94% 0 in 0.00 W/m2
01:39 55.8 °F 54.1 °F 29.78 in NNE 4 mph 2.9 mph 94% 0 in 0.00 W/m2
01:44 55.7 °F 54 °F 29.78 in NNE 3.5 mph 1.1 mph 94% 0 in 0.00 W/m2
01:49 55.5 °F 53.8 °F 29.78 in NE 5 mph 2.7 mph 94% 0 in 0.00 W/m2
01:54 55.5 °F 53.8 °F 29.78 in NE 3.5 mph 3 mph 94% 0 in 0.00 W/m2
01:59 55.4 °F 53.7 °F 29.77 in NNE 4 mph 2.2 mph 94% 0 in 0.00 W/m2
02:04 55.3 °F 53.6 °F 29.77 in NE 2.3 mph 0.6 mph 94% 0 in 0.00 W/m2
02:09 55.1 °F 53.4 °F 29.78 in NNE 3.5 mph 2.2 mph 94% 0 in 0.00 W/m2
02:14 55 °F 53.3 °F 29.77 in NE 3.5 mph 1.1 mph 94% 0 in 0.00 W/m2
02:19 54.8 °F 53.1 °F 29.78 in NE 2.3 mph 0.5 mph 94% 0 in 0.00 W/m2
02:24 54.8 °F 53.1 °F 29.78 in North 4 mph 2.9 mph 94% 0 in 0.00 W/m2
02:29 54.8 °F 53.1 °F 29.78 in NNE 3.5 mph 2.8 mph 94% 0 in 0.00 W/m2
02:34 54.8 °F 53.1 °F 29.78 in North 5.8 mph 4 mph 94% 0 in 0.00 W/m2
02:39 54.6 °F 52.9 °F 29.78 in NNE 4.6 mph 2.1 mph 94% 0 in 0.00 W/m2
02:44 54.5 °F 52.8 °F 29.79 in North 4.6 mph 3.6 mph 94% 0 in 0.00 W/m2
02:49 54.4 °F 52.7 °F 29.78 in NNE 4.6 mph 2 mph 94% 0 in 0.00 W/m2
02:54 54.3 °F 52.6 °F 29.79 in North 4 mph 3.1 mph 94% 0 in 0.00 W/m2
02:59 54.3 °F 52.6 °F 29.79 in North 3 mph 2.2 mph 94% 0 in 0.00 W/m2
03:04 54.2 °F 52.5 °F 29.79 in North 2.3 mph 0.9 mph 94% 0 in 0.00 W/m2
03:09 54.2 °F 52.5 °F 29.79 in NNE 2.3 mph 0.6 mph 94% 0 in 0.00 W/m2
03:14 54.1 °F 52.4 °F 29.79 in North 3.5 mph 1.7 mph 94% 0 in 0.00 W/m2
03:19 54 °F 52.3 °F 29.79 in North 3.5 mph 2 mph 94% 0 in 0.00 W/m2
03:24 53.9 °F 52.2 °F 29.79 in North 3.5 mph 1.4 mph 94% 0 in 0.00 W/m2
03:29 53.8 °F 52.1 °F 29.79 in North 3.5 mph 2.1 mph 94% 0 in 0.00 W/m2
03:34 53.7 °F 52 °F 29.79 in North 3.5 mph 0.3 mph 94% 0 in 0.00 W/m2
03:39 53.7 °F 52 °F 29.79 in North 2.3 mph 1.6 mph 94% 0 in 0.00 W/m2
03:44 53.8 °F 52.1 °F 29.79 in NNW 3.5 mph 2.1 mph 94% 0 in 0.00 W/m2
03:49 53.8 °F 52.1 °F 29.79 in NNW 4.6 mph 3 mph 94% 0 in 0.00 W/m2
03:54 53.8 °F 52.1 °F 29.79 in WNW 3.5 mph   94% 0 in 0.00 W/m2
03:59 53.9 °F 52.2 °F 29.80 in NNW 3.5 mph 0.7 mph 94% 0 in 0.00 W/m2
04:04 53.9 °F 52.2 °F 29.80 in NW 3.5 mph 0.4 mph 94% 0 in 0.00 W/m2
04:09 54 °F 52 °F 29.80 in NNW 3.5 mph 2.7 mph 93% 0 in 0.00 W/m2
04:14 54 °F 52.3 °F 29.80 in NNW 4.6 mph 1.8 mph 94% 0 in 0.00 W/m2
04:19 54.1 °F 52.1 °F 29.80 in NNW 3.5 mph 3.5 mph 93% 0 in 0.00 W/m2
04:24 54 °F 52 °F 29.80 in NNW 3.5 mph 2.1 mph 93% 0 in 0.00 W/m2
04:29 53.9 °F 51.9 °F 29.80 in NW 2.3 mph 0.3 mph 93% 0 in 0.00 W/m2
04:34 53.9 °F 51.9 °F 29.80 in NW 2 mph 0.9 mph 93% 0 in 0.00 W/m2
04:39 53.8 °F 51.8 °F 29.80 in NNW 3.5 mph 1.8 mph 93% 0 in 0.00 W/m2
04:44 53.7 °F 51.7 °F 29.81 in North 2.3 mph 1.9 mph 93% 0 in 0.00 W/m2
04:49 53.4 °F 51.1 °F 29.81 in NNW 3 mph 1.7 mph 92% 0 in 0.00 W/m2
04:54 53.2 °F 50.6 °F 29.81 in NNW 5.8 mph 2.7 mph 91% 0 in 0.00 W/m2
04:59 53 °F 50.4 °F 29.81 in North 3.5 mph 2.2 mph 91% 0 in 0.00 W/m2
05:04 53 °F 50.4 °F 29.81 in NNW 2.3 mph 1.4 mph 91% 0 in 0.00 W/m2
05:09 52.9 °F 50 °F 29.81 in NNW 3.5 mph 2.9 mph 90% 0 in 0.00 W/m2
05:14 52.8 °F 49.9 °F 29.81 in NNW 3.5 mph 2.8 mph 90% 0 in 0.00 W/m2
05:19 52.8 °F 49.6 °F 29.81 in NNW 4 mph 3.5 mph 89% 0 in 0.00 W/m2
05:24 52.7 °F 49.5 °F 29.81 in NNW 3.5 mph 1.1 mph 89% 0 in 0.00 W/m2
05:29 52.6 °F 49.1 °F 29.82 in NNW 3.5 mph 1 mph 88% 0 in 5.00 W/m2
05:34 52.6 °F 49.1 °F 29.82 in NNW 4.6 mph 2.5 mph 88% 0 in 7.00 W/m2
05:39 52.6 °F 49.4 °F 29.82 in NNW 4.6 mph 1.3 mph 89% 0 in 11.00 W/m2
05:44 52.7 °F 49.2 °F 29.83 in North 3.5 mph 1.7 mph 88% 0 in 16.00 W/m2
05:49 52.7 °F 48.9 °F 29.83 in North 1.2 mph 1.2 mph 87% 0 in 19.00 W/m2
05:54 52.8 °F 49 °F 29.83 in NNW 4 mph 2.5 mph 87% 0 in 25.00 W/m2
05:59 52.8 °F 49 °F 29.83 in NNW 4.6 mph 2.4 mph 87% 0 in 32.00 W/m2
06:04 52.9 °F 49.1 °F 29.84 in NNW 4 mph 3 mph 87% 0 in 39.00 W/m2
06:09 53 °F 49.2 °F 29.84 in NNW 3.5 mph 2.5 mph 87% 0 in 49.00 W/m2
06:14 53 °F 49.2 °F 29.84 in NNW 3.5 mph 2.6 mph 87% 0 in 62.00 W/m2
06:19 53.2 °F 49.4 °F 29.84 in NNW 3.5 mph 2.2 mph 87% 0 in 72.00 W/m2
06:24 53.4 °F 49.6 °F 29.85 in NNW 3.5 mph 1.9 mph 87% 0 in 83.00 W/m2
06:29 53.5 °F 49.4 °F 29.85 in North 5 mph 3.4 mph 86% 0 in 98.00 W/m2
06:34 53.7 °F 49.3 °F 29.85 in NNW 3.5 mph 1.4 mph 85% 0 in 113.00 W/m2
06:39 54 °F 49.6 °F 29.86 in NNW 3.5 mph 2.3 mph 85% 0 in 125.00 W/m2
06:44 54.2 °F 49.8 °F 29.86 in NW 3.5 mph 1.2 mph 85% 0 in 139.00 W/m2
06:49 54.5 °F 49.8 °F 29.86 in Calm     84% 0 in 156.00 W/m2
06:54 54.7 °F 49.6 °F 29.87 in Calm     83% 0 in 176.00 W/m2
06:59 54.9 °F 49.8 °F 29.87 in Calm     83% 0 in 193.00 W/m2
07:04 55.2 °F 49.5 °F 29.87 in Calm     81% 0 in 211.00 W/m2
07:09 55.4 °F 49.3 °F 29.88 in Calm     80% 0 in 225.00 W/m2
07:14 55.7 °F 49.6 °F 29.87 in Calm     80% 0 in 239.00 W/m2
07:19 56.1 °F 49.7 °F 29.88 in Calm     79% 0 in 255.00 W/m2
07:24 56.4 °F 49.6 °F 29.88 in NNW 4 mph 3.8 mph 78% 0 in 267.00 W/m2
07:29 56.5 °F 49.7 °F 29.88 in NNW 3.5 mph 3.8 mph 78% 0 in 285.00 W/m2
07:34 56.8 °F 49.3 °F 29.89 in NNW 5 mph 4.1 mph 76% 0 in 297.00 W/m2
07:39 57 °F 49.9 °F 29.88 in NNW 3.5 mph 2.7 mph 77% 0 in 313.00 W/m2
07:44 57.4 °F 50.2 °F 29.89 in NNW 2.3 mph   77% 0 in 330.00 W/m2
07:49 57.5 °F 49.6 °F 29.89 in Calm     75% 0 in 341.00 W/m2
07:54 57.9 °F 49.7 °F 29.89 in Calm     74% 0 in 359.00 W/m2
07:59 58.2 °F 50 °F 29.89 in NNW 5.8 mph 2.8 mph 74% 0 in 373.00 W/m2
08:04 58.6 °F 50.3 °F 29.90 in Calm     74% 0 in 383.00 W/m2
08:09 58.8 °F 50.2 °F 29.90 in Calm     73% 0 in 396.00 W/m2
08:14 59 °F 50.7 °F 29.90 in Calm     74% 0 in 401.00 W/m2
08:19 59.2 °F 50.2 °F 29.90 in North 5.8 mph 4.4 mph 72% 0 in 406.00 W/m2
08:24 59.2 °F 50.5 °F 29.90 in North 5.8 mph 4.1 mph 73% 0 in 401.00 W/m2
08:29 59.5 °F 50.5 °F 29.90 in Calm     72% 0 in 397.00 W/m2
08:34 59.5 °F 50.5 °F 29.90 in North 5.8 mph 4.7 mph 72% 0 in 399.00 W/m2
08:39 59.8 °F 51.5 °F 29.90 in North 3.5 mph   74% 0 in 404.00 W/m2
08:44 60.2 °F 51.1 °F 29.90 in NNW 9.2 mph 4.7 mph 72% 0 in 422.00 W/m2
08:49 60.3 °F 51.2 °F 29.90 in North 4.6 mph 4.6 mph 72% 0 in 452.00 W/m2
08:54 60.5 °F 51.4 °F 29.91 in North 5.8 mph 3.1 mph 72% 0 in 473.00 W/m2
08:59 60.7 °F 50.9 °F 29.91 in North 6 mph 3.4 mph 70% 0 in 506.00 W/m2
09:04 60.9 °F 51 °F 29.91 in NNE 5 mph 3.8 mph 70% 0 in 533.00 W/m2
09:09 61.3 °F 51 °F 29.91 in NNW 6.9 mph 4.7 mph 69% 0 in 541.00 W/m2
09:14 61.6 °F 50.9 °F 29.91 in WNW 4 mph 4.7 mph 68% 0 in 541.00 W/m2
09:19 61.9 °F 52 °F 29.91 in NNW 6 mph 0.7 mph 70% 0 in 536.00 W/m2
09:24 62.3 °F 52 °F 29.91 in North 3.5 mph   69% 0 in 534.00 W/m2
09:29 62.7 °F 52.8 °F 29.91 in North 6 mph 4.1 mph 70% 0 in 534.00 W/m2
09:34 63 °F 52.7 °F 29.91 in NW 5.8 mph 4.6 mph 69% 0 in 534.00 W/m2
09:39 63.3 °F 52.2 °F 29.91 in NNW 10.4 mph 5 mph 67% 0 in 540.00 W/m2
09:44 63.4 °F 52.2 °F 29.91 in North 11.5 mph 6.8 mph 67% 0 in 548.00 W/m2
09:49 63.8 °F 53.4 °F 29.91 in NW 8.1 mph 4.5 mph 69% 0 in 566.00 W/m2
09:54 64.1 °F 52.5 °F 29.91 in NW 8.1 mph 4.7 mph 66% 0 in 589.00 W/m2
09:59 64.2 °F 53 °F 29.91 in North 10.4 mph 5.7 mph 67% 0 in 621.00 W/m2
10:04 64.4 °F 52.8 °F 29.91 in NNW 8.1 mph 5.3 mph 66% 0 in 650.00 W/m2
10:09 64.5 °F 52.9 °F 29.92 in WNW 11.5 mph 6.9 mph 66% 0 in 687.00 W/m2
10:14 64.9 °F 54.1 °F 29.92 in NNW 10.4 mph 6.4 mph 68% 0 in 722.00 W/m2
10:19 65.3 °F 54.5 °F 29.92 in NNW 10 mph 8.7 mph 68% 0 in 751.00 W/m2
10:24 65.4 °F 54.6 °F 29.92 in NW 8 mph 5.8 mph 68% 0 in 770.00 W/m2
10:29 65.7 °F 54.8 °F 29.92 in NNW 10 mph 8.4 mph 68% 0 in 772.00 W/m2
10:34 65.8 °F 55.3 °F 29.92 in North 11.5 mph 7.7 mph 69% 0 in 775.00 W/m2
10:39 66 °F 54.7 °F 29.92 in WNW 10 mph 7.1 mph 67% 0 in 788.00 W/m2
10:44 66.2 °F 55.3 °F 29.92 in North 11.5 mph 8.9 mph 68% 0 in 795.00 W/m2
10:49 66.4 °F 55.5 °F 29.92 in NW 10.4 mph 7.1 mph 68% 0 in 805.00 W/m2
10:54 66.5 °F 55.2 °F 29.93 in NNW 12 mph 9 mph 67% 0 in 814.00 W/m2
10:59 66.6 °F 56.9 °F 29.93 in NNW 10.4 mph 6.9 mph 71% 0 in 816.00 W/m2
11:04 66.8 °F 56.3 °F 29.93 in NW 10.4 mph 5.6 mph 69% 0 in 826.00 W/m2
11:09 66.9 °F 56.4 °F 29.92 in NNW 11.5 mph 6 mph 69% 0 in 838.00 W/m2
11:14 67.5 °F 57.8 °F 29.93 in North 11.5 mph 6.7 mph 71% 0 in 849.00 W/m2
11:19 67.8 °F 57.7 °F 29.92 in NNW 15 mph 7.9 mph 70% 0 in 851.00 W/m2
11:24 67.9 °F 58.1 °F 29.93 in North 12.7 mph 8.3 mph 71% 0 in 847.00 W/m2
11:29 68 °F 58.2 °F 29.92 in NNW 11.5 mph 6.1 mph 71% 0 in 858.00 W/m2
11:34 68.4 °F 57.8 °F 29.93 in North 15 mph 9.9 mph 69% 0 in 877.00 W/m2
11:39 68.8 °F 59 °F 29.92 in NNW 14 mph 10.3 mph 71% 0 in 909.00 W/m2
11:44 69 °F 58.8 °F 29.93 in NNW 12.7 mph 8.6 mph 70% 0 in 909.00 W/m2
11:49 69.3 °F 59.1 °F 29.92 in North 12 mph 8.3 mph 70% 0 in 918.00 W/m2
11:54 69.6 °F 59.4 °F 29.93 in North 11.5 mph 6.2 mph 70% 0 in 909.00 W/m2
11:59 69.7 °F 59.1 °F 29.93 in North 12.7 mph 11.1 mph 69% 0 in 958.00 W/m2
12:04 69.8 °F 59.2 °F 29.93 in North 8.1 mph 5.4 mph 69% 0 in 916.00 W/m2
12:09 70.1 °F 58.2 °F 29.93 in NW 8.1 mph 5.5 mph 66% 0 in 919.00 W/m2
12:14 69.8 °F 57.1 °F 29.93 in NNW 12.7 mph 7 mph 64% 0 in 935.00 W/m2
12:19 70.1 °F 58.6 °F 29.93 in NW 11.5 mph 6.1 mph 67% 0 in 960.00 W/m2
12:24 70.4 °F 58.5 °F 29.93 in NNE 11.5 mph 8.8 mph 66% 0 in 972.00 W/m2
12:29 70.7 °F 58.4 °F 29.93 in NNW 11.5 mph 8.1 mph 65% 0 in 1035.00 W/m2
12:34 70.2 °F 57.9 °F 29.93 in North 9 mph 6.2 mph 65% 0 in 325.00 W/m2
12:39 70 °F 56.8 °F 29.93 in NW 8.1 mph 6.6 mph 63% 0 in 1086.00 W/m2
12:44 70.2 °F 56.6 °F 29.93 in NNW 9.2 mph 4.9 mph 62% 0 in 316.00 W/m2
12:49 70.1 °F 56.9 °F 29.93 in North 11.5 mph 10.4 mph 63% 0 in 287.00 W/m2
12:54 69.4 °F 56.7 °F 29.93 in North 8 mph 5.1 mph 64% 0 in 1023.00 W/m2
12:59 69.9 °F 58 °F 29.92 in NNE 10.4 mph 5.4 mph 66% 0 in 250.00 W/m2
13:04 69.9 °F 57.6 °F 29.92 in North 11.5 mph 6.3 mph 65% 0 in 1037.00 W/m2
13:09 70.8 °F 57.1 °F 29.92 in NNE 11 mph 7.5 mph 62% 0 in 415.00 W/m2
13:14 70.4 °F 55.4 °F 29.92 in NNE 11.5 mph 6.6 mph 59% 0 in 264.00 W/m2
13:19 69.5 °F 54.1 °F 29.93 in NNE 11.5 mph 8 mph 58% 0 in 271.00 W/m2
13:24 68.7 °F 54.3 °F 29.93 in North 11.5 mph 7 mph 60% 0 in 359.00 W/m2
13:29 68.6 °F 55.1 °F 29.93 in NE 10.4 mph 6.6 mph 62% 0 in 350.00 W/m2
13:34 69.4 °F 56.7 °F 29.93 in ENE 9.2 mph 6.8 mph 64% 0 in 940.00 W/m2
13:39 70.8 °F 56.7 °F 29.93 in NE 11 mph 6.1 mph 61% 0 in 928.00 W/m2
13:44 71 °F 55 °F 29.93 in ENE 11.5 mph 7.3 mph 57% 0 in 928.00 W/m2
13:49 71.1 °F 55.6 °F 29.93 in NNE 11.5 mph 6.5 mph 58% 0 in 911.00 W/m2
13:54 71.2 °F 54.7 °F 29.93 in NE 13.8 mph 9.3 mph 56% 0 in 881.00 W/m2
13:59 70.8 °F 53.8 °F 29.94 in North 11.5 mph 7.8 mph 55% 0 in 874.00 W/m2
14:04 70.8 °F 54.8 °F 29.94 in ENE 11.5 mph 5.9 mph 57% 0 in 851.00 W/m2
14:09 71 °F 54.5 °F 29.94 in NE 11.5 mph 5.9 mph 56% 0 in 884.00 W/m2
14:14 71.1 °F 55.6 °F 29.94 in ENE 11.5 mph 6.5 mph 58% 0 in 898.00 W/m2
14:19 71.2 °F 54.2 °F 29.94 in ENE 10.4 mph 5.9 mph 55% 0 in 838.00 W/m2
14:24 71.1 °F 54.1 °F 29.94 in North 11.5 mph 6 mph 55% 0 in 889.00 W/m2
14:29 71.4 °F 54.4 °F 29.94 in NNE 10.4 mph 9.1 mph 55% 0 in 874.00 W/m2
14:34 71.8 °F 55.7 °F 29.95 in NE 8.1 mph 5.7 mph 57% 0 in 856.00 W/m2
14:39 72.1 °F 56 °F 29.95 in ENE 10.4 mph 5.9 mph 57% 0 in 865.00 W/m2
14:44 72.2 °F 55.1 °F 29.95 in ENE 13.8 mph 8.1 mph 55% 0 in 847.00 W/m2
14:49 72 °F 53.9 °F 29.95 in North 10.4 mph 7.9 mph 53% 0 in 861.00 W/m2
14:54 71.9 °F 54.3 °F 29.95 in NNE 9.2 mph 6.9 mph 54% 0 in 875.00 W/m2
14:59 71.9 °F 53.8 °F 29.95 in NNE 11.5 mph 6.6 mph 53% 0 in 875.00 W/m2
15:04 72.4 °F 53.8 °F 29.95 in NNE 6.9 mph 7.8 mph 52% 0 in 881.00 W/m2
15:09 72.6 °F 54 °F 29.95 in ENE 17.3 mph 8.9 mph 52% 0 in 868.00 W/m2
15:14 72.8 °F 53.6 °F 29.95 in ENE 11.5 mph 6.6 mph 51% 0 in 802.00 W/m2
15:19 73 °F 55.4 °F 29.95 in NE 10.4 mph 6.6 mph 54% 0 in 793.00 W/m2
15:24 73.3 °F 55.1 °F 29.95 in ENE 6.9 mph 2.7 mph 53% 0 in 775.00 W/m2
15:29 73 °F 52.1 °F 29.95 in ENE 8.1 mph 5 mph 48% 0 in 765.00 W/m2
15:34 72.6 °F 51.2 °F 29.95 in NNE 5.8 mph 1.2 mph 47% 0 in 747.00 W/m2
15:39 72.2 °F 51.4 °F 29.95 in NE 9.2 mph 6.9 mph 48% 0 in 735.00 W/m2
15:44 72.4 °F 53.2 °F 29.95 in ENE 8.1 mph 4.6 mph 51% 0 in 726.00 W/m2
15:49 72.5 °F 53.3 °F 29.95 in NE 10.4 mph 4.2 mph 51% 0 in 717.00 W/m2
15:54 72.7 °F 53 °F 29.95 in East 6.9 mph 6.1 mph 50% 0 in 715.00 W/m2
15:59 72.5 °F 52.2 °F 29.95 in ENE 10.4 mph 7.4 mph 49% 0 in 707.00 W/m2
16:05 72.3 °F 50.9 °F 29.95 in NE 5.8 mph 3.2 mph 47% 0 in 689.00 W/m2
16:09 72.5 °F 52.8 °F 29.95 in ENE 8.1 mph 3.1 mph 50% 0 in 680.00 W/m2
16:14 72.6 °F 52.9 °F 29.94 in East 8 mph 4.6 mph 50% 0 in 670.00 W/m2
16:19 72.8 °F 53.6 °F 29.95 in ENE 8.1 mph 6.5 mph 51% 0 in 645.00 W/m2
16:24 72.8 °F 53.1 °F 29.95 in ENE 8.1 mph 2.9 mph 50% 0 in 621.00 W/m2
16:29 72.8 °F 53.1 °F 29.95 in ENE 6.9 mph 3.1 mph 50% 0 in 610.00 W/m2
16:34 72.5 °F 52.2 °F 29.95 in ENE 8.1 mph 4.3 mph 49% 0 in 594.00 W/m2
16:39 72.6 °F 52.9 °F 29.94 in East 8.1 mph 6.3 mph 50% 0 in 580.00 W/m2
16:44 72.2 °F 50.3 °F 29.95 in ENE 8.1 mph 3.2 mph 46% 0 in 568.00 W/m2
16:49 72.1 °F 53 °F 29.95 in North 6 mph 2.3 mph 51% 0 in 548.00 W/m2
16:54 72.2 °F 51.4 °F 29.95 in NE 5.8 mph 3.2 mph 48% 0 in 536.00 W/m2
16:59 72.4 °F 51.6 °F 29.95 in NNE 6.9 mph 5.4 mph 48% 0 in 519.00 W/m2
17:04 72.3 °F 50.4 °F 29.95 in NNE 3.5 mph   46% 0 in 504.00 W/m2
17:09 72.5 °F 52.8 °F 29.95 in ENE 3.5 mph 2.8 mph 50% 0 in 485.00 W/m2
17:14 72.6 °F 52.3 °F 29.95 in ENE 6.9 mph 2.4 mph 49% 0 in 473.00 W/m2
17:19 72.2 °F 51.4 °F 29.95 in North 4.6 mph 2.6 mph 48% 0 in 459.00 W/m2
17:24 72 °F 51.2 °F 29.95 in ENE 4.6 mph 2.5 mph 48% 0 in 422.00 W/m2
17:29 71.9 °F 51.7 °F 29.95 in ENE 8.1 mph 5.3 mph 49% 0 in 397.00 W/m2
17:34 71.4 °F 51.8 °F 29.95 in ENE 3.5 mph 3 mph 50% 0 in 167.00 W/m2
17:39 70.8 °F 50.7 °F 29.95 in ENE 6.9 mph 5 mph 49% 0 in 172.00 W/m2
17:44 70.3 °F 51.3 °F 29.95 in ENE 6.9 mph 5.1 mph 51% 0 in 306.00 W/m2
17:49 70.1 °F 50 °F 29.95 in ENE 9.2 mph 7.1 mph 49% 0 in 130.00 W/m2
17:54 69.5 °F 49.5 °F 29.95 in ENE 8 mph 4 mph 49% 0 in 327.00 W/m2
17:59 69.3 °F 50.4 °F 29.95 in ENE 3.5 mph 1.2 mph 51% 0 in 302.00 W/m2
18:04 69.5 °F 50.6 °F 29.95 in NE 5.8 mph 2 mph 51% 0 in 294.00 W/m2
18:09 69.6 °F 51.2 °F 29.95 in ENE 4.6 mph 0.6 mph 52% 0 in 274.00 W/m2
18:14 69.7 °F 50.2 °F 29.95 in ENE 3.5 mph 0.5 mph 50% 0 in 258.00 W/m2
18:19 69.6 °F 49.6 °F 29.95 in NE 6.9 mph 2.1 mph 49% 0 in 239.00 W/m2
18:24 69.5 °F 50 °F 29.95 in ENE 4.6 mph 1.3 mph 50% 0 in 230.00 W/m2
18:29 69.4 °F 48.9 °F 29.95 in NE 4.6 mph 2.4 mph 48% 0 in 214.00 W/m2
18:34 69.4 °F 49.9 °F 29.95 in ENE 3.5 mph 2.4 mph 50% 0 in 204.00 W/m2
18:39 69 °F 49 °F 29.95 in NE 8.1 mph 2.5 mph 49% 0 in 190.00 W/m2
18:44 68.9 °F 49.5 °F 29.95 in ENE 4 mph 3.5 mph 50% 0 in 171.00 W/m2
18:49 68.4 °F 49 °F 29.95 in East 6.9 mph 4.7 mph 50% 0 in 156.00 W/m2
18:54 67.9 °F 48.6 °F 29.95 in ENE 6.9 mph 4.7 mph 50% 0 in 141.00 W/m2
18:59 67.5 °F 49.3 °F 29.95 in ENE 7 mph 4.8 mph 52% 0 in 130.00 W/m2
19:04 67.1 °F 48.9 °F 29.95 in East 5 mph 4.5 mph 52% 0 in 118.00 W/m2
19:09 66.8 °F 49.1 °F 29.95 in East 5.8 mph 1.9 mph 53% 0 in 104.00 W/m2
19:14 66.4 °F 48.2 °F 29.96 in East 5.8 mph 3.3 mph 52% 0 in 90.00 W/m2
19:20 65.9 °F 48.3 °F 29.96 in North 4.6 mph 2.7 mph 53% 0 in 74.00 W/m2
19:24 65.4 °F 47.3 °F 29.96 in East 5.8 mph 2.3 mph 52% 0 in 47.00 W/m2
19:29 65 °F 48.4 °F 29.96 in East 4.6 mph 1.9 mph 55% 0 in 42.00 W/m2
19:34 64.6 °F 49 °F 29.96 in East 4.6 mph 1.5 mph 57% 0 in 39.00 W/m2
19:39 64.1 °F 49 °F 29.96 in ENE 4 mph 3.9 mph 58% 0 in 33.00 W/m2
19:44 63.7 °F 48.6 °F 29.96 in ENE 3.5 mph 3.5 mph 58% 0 in 30.00 W/m2
19:49 63.3 °F 49.2 °F 29.96 in East 3.5 mph 2.2 mph 60% 0 in 26.00 W/m2
19:54 62.9 °F 48.8 °F 29.96 in ENE 4.6 mph 2.8 mph 60% 0 in 21.00 W/m2
19:59 62.5 °F 48.9 °F 29.96 in ENE 3.5 mph 1.9 mph 61% 0 in 16.00 W/m2
20:04 62.2 °F 49.9 °F 29.96 in ENE 2.3 mph 0.2 mph 64% 0 in 12.00 W/m2
20:09 61.9 °F 49.6 °F 29.96 in Calm     64% 0 in 7.00 W/m2
20:14 61.6 °F 49.3 °F 29.96 in Calm     64% 0 in 0.00 W/m2
20:19 61.4 °F 49.1 °F 29.96 in Calm     64% 0 in 0.00 W/m2
20:24 61.2 °F 49.3 °F 29.96 in Calm     65% 0 in 0.00 W/m2
20:29 61.1 °F 49.2 °F 29.96 in Calm     65% 0 in 0.00 W/m2
20:34 61 °F 50 °F 29.96 in Calm     67% 0 in 0.00 W/m2
20:39 60.8 °F 50.2 °F 29.96 in Calm     68% 0 in 0.00 W/m2
20:44 60.5 °F 49.5 °F 29.96 in Calm     67% 0 in 0.00 W/m2
20:49 60.2 °F 50 °F 29.96 in Calm     69% 0 in 0.00 W/m2
20:54 59.9 °F 50.1 °F 29.96 in ENE 1.2 mph   70% 0 in 0.00 W/m2
20:59 59.7 °F 50.7 °F 29.97 in Calm     72% 0 in 0.00 W/m2
21:04 59.4 °F 50.7 °F 29.97 in Calm     73% 0 in 0.00 W/m2
21:09 59.1 °F 50.5 °F 29.97 in Calm     73% 0 in 0.00 W/m2
21:14 58.7 °F 50.1 °F 29.97 in Calm     73% 0 in 0.00 W/m2
21:19 58.4 °F 49.4 °F 29.97 in Calm     72% 0 in 0.00 W/m2
21:24 58.5 °F 49.9 °F 29.97 in Calm     73% 0 in 0.00 W/m2
21:29 58.4 °F 49.4 °F 29.97 in Calm     72% 0 in 0.00 W/m2
21:34 58.4 °F 49.8 °F 29.97 in Calm     73% 0 in 0.00 W/m2
21:40 58.3 °F 50.4 °F 29.97 in Calm     75% 0 in 0.00 W/m2
21:44 58.1 °F 50.2 °F 29.97 in Calm     75% 0 in 0.00 W/m2
21:49 57.9 °F 50 °F 29.98 in Calm     75% 0 in 0.00 W/m2
21:54 57.8 °F 49.6 °F 29.98 in Calm     74% 0 in 0.00 W/m2
21:59 57.8 °F 48.8 °F 29.98 in Calm     72% 0 in 0.00 W/m2
22:04 57.9 °F 48.6 °F 29.98 in Calm     71% 0 in 0.00 W/m2
22:09 57.8 °F 48.1 °F 29.98 in Calm     70% 0 in 0.00 W/m2
22:15 57.8 °F 48.1 °F 29.98 in Calm     70% 0 in 0.00 W/m2
22:19 57.7 °F 48 °F 29.98 in ENE 1.2 mph   70% 0 in 0.00 W/m2
22:24 57.7 °F 48.4 °F 29.98 in Calm     71% 0 in 0.00 W/m2
22:29 57.5 °F 48.2 °F 29.98 in Calm     71% 0 in 0.00 W/m2
22:34 57.5 °F 48.5 °F 29.98 in Calm     72% 0 in 0.00 W/m2
22:40 57.4 °F 48.8 °F 29.98 in Calm     73% 0 in 0.00 W/m2
22:44 57.2 °F 49 °F 29.98 in East 1.2 mph   74% 0 in 0.00 W/m2
22:49 57 °F 48.4 °F 29.98 in ESE 2 mph 0.8 mph 73% 0 in 0.00 W/m2
22:54 56.9 °F 48.3 °F 29.98 in ESE 2.3 mph 0.4 mph 73% 0 in 0.00 W/m2
22:59 56.8 °F 48.2 °F 29.98 in Calm     73% 0 in 0.00 W/m2
23:05 56.8 °F 48.6 °F 29.98 in ESE 1 mph   74% 0 in 0.00 W/m2
23:09 56.8 °F 48.6 °F 29.98 in Calm     74% 0 in 0.00 W/m2
23:14 56.8 °F 48.6 °F 29.98 in Calm     74% 0 in 0.00 W/m2
23:20 56.6 °F 48.8 °F 29.98 in Calm     75% 0 in 0.00 W/m2
23:24 56.5 °F 48.7 °F 29.98 in Calm     75% 0 in 0.00 W/m2
23:29 56.4 °F 48.6 °F 29.98 in SSW 3.5 mph 0.9 mph 75% 0 in 0.00 W/m2
23:34 56.6 °F 48.8 °F 29.98 in SSW 3.5 mph 1.1 mph 75% 0 in 0.00 W/m2
23:39 56.9 °F 48.7 °F 29.98 in SSW 3.5 mph 1.8 mph 74% 0 in 0.00 W/m2
23:44 57.2 °F 48.6 °F 29.98 in SSW 2.3 mph 1.4 mph 73% 0 in 0.00 W/m2
23:50 57.5 °F 48.5 °F 29.98 in SW 3.5 mph 1.9 mph 72% 0 in 0.00 W/m2
23:54 57.7 °F 48.7 °F 29.98 in SSW 3.5 mph 2.4 mph 72% 0 in 0.00 W/m2
23:59 57.9 °F 48.6 °F 29.98 in SSW 4.6 mph 2.2 mph 71% 0 in 0.00 W/m2
Bourbonnais, Illinois, USA
Compliments of Weather Underground - 4 mb